createdAt,value
2022-12-16T00:03:12.902Z,1.20
2022-12-16T00:05:44.410Z,1.30
2022-12-16T00:08:12.298Z,1.43
2022-12-16T00:10:54.920Z,1.27
2022-12-16T00:13:23.321Z,1.77
2022-12-16T00:15:51.311Z,1.40
2022-12-16T00:18:20.430Z,1.40
2022-12-16T00:20:48.604Z,1.43
2022-12-16T00:23:16.525Z,1.30
2022-12-16T00:25:44.385Z,1.27
2022-12-16T00:28:13.310Z,1.50
2022-12-16T00:30:42.428Z,1.73
2022-12-16T00:33:10.352Z,1.63
2022-12-16T00:35:42.995Z,3.40
2022-12-16T00:38:13.570Z,1.50
2022-12-16T00:40:41.336Z,1.50
2022-12-16T00:43:09.218Z,1.53
2022-12-16T00:45:36.976Z,1.60
2022-12-16T00:48:05.130Z,1.57
2022-12-16T00:50:32.928Z,1.40
2022-12-16T00:53:02.150Z,1.80
2022-12-16T00:55:29.876Z,1.30
2022-12-16T00:57:57.739Z,1.27
2022-12-16T01:00:25.611Z,1.20
2022-12-16T01:02:53.677Z,1.10
2022-12-16T01:05:26.898Z,1.10
2022-12-16T01:07:55.250Z,1.30
2022-12-16T01:10:25.048Z,1.10
2022-12-16T01:12:53.157Z,1.57
2022-12-16T01:15:22.962Z,1.20
2022-12-16T01:17:50.793Z,0.97
2022-12-16T01:20:18.607Z,1.07
2022-12-16T01:22:46.305Z,0.83
2022-12-16T01:25:14.023Z,0.93
2022-12-16T01:27:43.053Z,1.00
2022-12-16T01:30:12.137Z,1.30
2022-12-16T01:32:39.867Z,1.37
2022-12-16T01:35:29.578Z,0.77
2022-12-16T01:37:56.291Z,1.20
2022-12-16T01:40:25.059Z,1.93
2022-12-16T01:42:54.086Z,1.23
2022-12-16T01:45:34.056Z,1.23
2022-12-16T01:48:07.804Z,1.20
2022-12-16T01:50:36.571Z,1.60
2022-12-16T01:53:06.562Z,1.37
2022-12-16T01:55:38.954Z,1.47
2022-12-16T01:58:11.509Z,1.63
2022-12-16T02:00:40.311Z,1.23
2022-12-16T02:03:08.603Z,1.50
2022-12-16T02:05:39.570Z,1.87
2022-12-16T02:08:12.820Z,1.47
2022-12-16T02:10:50.809Z,1.47
2022-12-16T02:13:24.941Z,1.60
2022-12-16T02:15:58.823Z,2.23
2022-12-16T02:18:31.870Z,2.00
2022-12-16T02:21:21.379Z,1.40
2022-12-16T02:24:27.295Z,1.50
2022-12-16T02:27:32.179Z,1.47
2022-12-16T02:30:09.195Z,1.50
2022-12-16T02:32:46.209Z,1.60
2022-12-16T02:35:19.203Z,1.77
2022-12-16T02:37:50.060Z,1.57
2022-12-16T02:40:23.690Z,2.20
2022-12-16T02:42:54.529Z,1.33
2022-12-16T02:45:26.451Z,1.33
2022-12-16T02:47:55.578Z,1.40
2022-12-16T02:50:24.733Z,2.10
2022-12-16T02:52:54.380Z,1.30
2022-12-16T02:58:12.585Z,1.30
2022-12-16T03:00:49.238Z,1.30
2022-12-16T03:03:21.861Z,1.03
2022-12-16T03:05:52.560Z,1.20
2022-12-16T03:08:23.534Z,1.30
2022-12-16T03:10:54.219Z,1.30
2022-12-16T03:13:24.034Z,1.43
2022-12-16T03:15:54.661Z,1.23
2022-12-16T03:18:24.314Z,1.73
2022-12-16T03:20:56.565Z,1.30
2022-12-16T03:23:29.242Z,1.27
2022-12-16T03:26:00.769Z,1.30
2022-12-16T03:28:37.332Z,1.40
2022-12-16T03:31:09.045Z,1.60
2022-12-16T03:33:41.279Z,1.83
2022-12-16T03:36:12.048Z,1.60
2022-12-16T03:38:41.004Z,2.40
2022-12-16T03:41:08.971Z,1.60
2022-12-16T03:43:37.242Z,2.10
2022-12-16T03:46:07.622Z,2.20
2022-12-16T03:48:36.009Z,1.80
2022-12-16T03:51:05.263Z,2.90
2022-12-16T03:53:33.386Z,2.47
2022-12-16T03:56:01.230Z,2.77
2022-12-16T03:58:28.933Z,3.93
2022-12-16T04:00:56.625Z,3.93
2022-12-16T04:03:24.309Z,4.60
2022-12-16T04:05:52.113Z,3.83
2022-12-16T04:08:21.105Z,4.23
2022-12-16T04:11:09.964Z,5.30
2022-12-16T04:13:55.303Z,4.87
2022-12-16T04:16:40.467Z,4.87
2022-12-16T04:19:28.400Z,6.63
2022-12-16T04:22:13.822Z,7.90
2022-12-16T04:24:43.370Z,7.57
2022-12-16T04:27:27.601Z,7.30
2022-12-16T04:30:12.881Z,7.70
2022-12-16T04:32:58.286Z,7.27
2022-12-16T04:35:43.499Z,9.07
2022-12-16T04:38:28.928Z,6.73
2022-12-16T04:41:15.679Z,8.93
2022-12-16T04:44:00.866Z,8.00
2022-12-16T04:47:00.600Z,8.57
2022-12-16T04:49:45.871Z,7.50
2022-12-16T04:52:31.948Z,9.30
2022-12-16T04:55:17.127Z,9.73
2022-12-16T04:58:05.862Z,9.17
2022-12-16T05:00:50.955Z,7.93
2022-12-16T05:03:36.652Z,8.43
2022-12-16T05:06:22.308Z,8.97
2022-12-16T05:09:07.714Z,9.70
2022-12-16T05:11:52.942Z,6.87
2022-12-16T05:14:39.682Z,10.37
2022-12-16T05:17:25.024Z,8.60
2022-12-16T05:20:10.403Z,6.23
2022-12-16T05:22:55.835Z,7.90
2022-12-16T05:25:41.020Z,10.97
2022-12-16T05:28:26.425Z,6.67
2022-12-16T05:31:13.020Z,7.67
2022-12-16T05:33:58.466Z,7.27
2022-12-16T05:36:43.839Z,5.80
2022-12-16T05:39:29.193Z,8.43
2022-12-16T05:42:14.614Z,7.43
2022-12-16T05:44:59.897Z,6.53
2022-12-16T05:47:46.603Z,6.10
2022-12-16T05:50:32.035Z,10.38
2022-12-16T05:53:17.279Z,9.70
2022-12-16T05:56:02.570Z,6.93
2022-12-16T05:58:48.331Z,6.97
2022-12-16T06:01:39.070Z,6.97
2022-12-16T06:04:26.226Z,5.87
2022-12-16T06:07:11.561Z,6.00
2022-12-16T06:10:05.211Z,5.43
2022-12-16T06:12:50.578Z,5.07
2022-12-16T06:15:36.087Z,4.73
2022-12-16T06:18:21.671Z,4.60
2022-12-16T06:21:08.071Z,5.30
2022-12-16T06:23:53.448Z,6.00
2022-12-16T06:26:38.827Z,6.73
2022-12-16T06:29:24.270Z,6.93
2022-12-16T06:32:09.560Z,7.53
2022-12-16T06:34:54.942Z,7.03
2022-12-16T06:37:41.598Z,7.10
2022-12-16T06:40:28.650Z,7.33
2022-12-16T06:43:13.195Z,6.90
2022-12-16T06:45:58.466Z,7.13
2022-12-16T06:48:43.564Z,6.23
2022-12-16T06:51:28.891Z,6.60
2022-12-16T06:54:15.611Z,6.63
2022-12-16T06:57:00.885Z,6.30
2022-12-16T07:00:01.385Z,5.80
2022-12-16T07:02:46.862Z,6.47
2022-12-16T07:05:32.564Z,6.37
2022-12-16T07:08:17.875Z,7.03
2022-12-16T07:11:16.168Z,6.63
2022-12-16T07:14:01.803Z,6.67
2022-12-16T07:16:47.374Z,6.80
2022-12-16T07:19:32.515Z,6.87
2022-12-16T07:22:17.858Z,6.90
2022-12-16T07:25:03.004Z,7.03
2022-12-16T07:27:49.463Z,7.43
2022-12-16T07:30:34.932Z,6.93
2022-12-16T07:33:20.181Z,6.67
2022-12-16T07:36:05.575Z,7.17
2022-12-16T07:38:51.496Z,7.97
2022-12-16T07:41:36.874Z,8.57
2022-12-16T07:44:23.849Z,10.13
2022-12-16T07:47:09.125Z,9.43
2022-12-16T07:49:55.461Z,9.20
2022-12-16T07:52:40.822Z,11.57
2022-12-16T07:55:26.602Z,12.13
2022-12-16T07:58:12.174Z,11.13
2022-12-16T08:00:58.575Z,9.90
2022-12-16T08:03:44.026Z,10.30
2022-12-16T08:06:29.258Z,9.90
2022-12-16T08:09:14.459Z,10.20
2022-12-16T08:11:59.913Z,9.80
2022-12-16T08:14:45.259Z,11.33
2022-12-16T08:17:31.957Z,11.07
2022-12-16T08:20:17.418Z,10.60
2022-12-16T08:23:02.791Z,10.80
2022-12-16T08:25:48.246Z,11.63
2022-12-16T08:28:33.303Z,12.83
2022-12-16T08:31:18.730Z,13.13
2022-12-16T08:34:05.216Z,13.93
2022-12-16T08:36:50.470Z,11.80
2022-12-16T08:39:36.111Z,11.33
2022-12-16T08:42:21.469Z,12.60
2022-12-16T08:45:06.720Z,12.83
2022-12-16T08:47:52.149Z,10.47
2022-12-16T08:50:38.409Z,11.83
2022-12-16T08:53:23.843Z,12.03
2022-12-16T08:59:03.716Z,13.00
2022-12-16T09:01:49.218Z,11.90
2022-12-16T09:04:34.748Z,11.40
2022-12-16T09:07:21.201Z,13.50
2022-12-16T09:10:06.611Z,15.70
2022-12-16T09:12:52.202Z,15.23
2022-12-16T09:15:37.874Z,16.50
2022-12-16T09:18:23.017Z,14.47
2022-12-16T09:21:09.658Z,13.83
2022-12-16T09:23:56.153Z,13.80
2022-12-16T09:26:41.584Z,14.37
2022-12-16T09:29:26.927Z,13.77
2022-12-16T09:32:12.392Z,13.90
2022-12-16T09:34:57.810Z,12.10
2022-12-16T09:37:43.154Z,12.13
2022-12-16T09:40:32.667Z,12.00
2022-12-16T09:43:23.098Z,11.50
2022-12-16T09:46:14.845Z,10.93
2022-12-16T09:49:05.188Z,11.87
2022-12-16T09:51:50.376Z,11.00
2022-12-16T09:54:38.655Z,10.20
2022-12-16T09:57:25.959Z,10.03
2022-12-16T10:00:14.142Z,9.43
2022-12-16T10:03:05.027Z,9.67
2022-12-16T10:06:01.172Z,9.93
2022-12-16T10:08:53.087Z,10.10
2022-12-16T10:11:42.970Z,9.47
2022-12-16T10:14:32.101Z,10.33
2022-12-16T10:17:27.734Z,11.10
2022-12-16T10:20:17.911Z,10.60
2022-12-16T10:23:09.077Z,10.90
2022-12-16T10:26:00.013Z,10.87
2022-12-16T10:29:00.059Z,11.43
2022-12-16T10:31:46.863Z,11.33
2022-12-16T10:34:33.442Z,10.73
2022-12-16T10:37:21.333Z,11.80
2022-12-16T10:40:07.294Z,10.87
2022-12-16T10:42:55.577Z,12.10
2022-12-16T10:45:44.439Z,12.47
2022-12-16T10:48:27.475Z,11.57
2022-12-16T10:51:12.644Z,12.00
2022-12-16T10:53:57.994Z,11.70
2022-12-16T10:59:23.611Z,12.63
2022-12-16T11:02:16.132Z,12.80
2022-12-16T11:05:03.085Z,12.37
2022-12-16T11:07:53.380Z,12.40
2022-12-16T11:10:47.871Z,12.30
2022-12-16T11:13:38.087Z,12.13
2022-12-16T11:16:32.650Z,11.67
2022-12-16T11:19:32.778Z,11.23
2022-12-16T11:22:25.323Z,12.03
2022-12-16T11:25:23.866Z,12.97
2022-12-16T11:28:09.043Z,11.50
2022-12-16T11:30:54.546Z,11.40
2022-12-16T11:33:43.201Z,12.47
2022-12-16T11:36:32.412Z,12.50
2022-12-16T11:39:19.437Z,12.53
2022-12-16T11:42:07.146Z,12.30
2022-12-16T11:44:55.488Z,12.90
2022-12-16T11:47:48.230Z,14.33
2022-12-16T11:50:36.379Z,13.90
2022-12-16T11:53:35.400Z,12.87
2022-12-16T11:59:34.267Z,13.57
2022-12-16T12:02:21.334Z,14.93
2022-12-16T12:05:07.648Z,14.47
2022-12-16T12:07:57.302Z,15.73
2022-12-16T12:10:58.535Z,17.00
2022-12-16T12:14:02.482Z,15.30
2022-12-16T12:16:55.518Z,15.27
2022-12-16T12:19:45.697Z,15.33
2022-12-16T12:22:39.055Z,15.13
2022-12-16T12:25:29.193Z,16.63
2022-12-16T12:28:20.492Z,16.77
2022-12-16T12:31:12.619Z,16.63
2022-12-16T12:34:14.619Z,16.87
2022-12-16T12:37:03.659Z,16.90
2022-12-16T12:39:53.591Z,17.07
2022-12-16T12:42:49.570Z,17.83
2022-12-16T12:46:09.365Z,17.50
2022-12-16T12:49:00.219Z,16.40
2022-12-16T12:51:50.124Z,22.90
2022-12-16T12:54:42.068Z,21.93
2022-12-16T12:57:28.855Z,20.10
2022-12-16T13:00:16.269Z,29.13
2022-12-16T13:03:07.189Z,37.80
2022-12-16T13:05:53.650Z,37.97
2022-12-16T13:09:13.695Z,32.13
2022-12-16T13:12:37.591Z,28.57
2022-12-16T13:15:24.102Z,36.73
2022-12-16T13:18:38.344Z,37.53
2022-12-16T13:21:23.501Z,30.67
2022-12-16T13:24:08.803Z,27.17
2022-12-16T13:26:56.252Z,28.80
2022-12-16T13:29:43.054Z,26.97
2022-12-16T13:32:36.101Z,28.73
2022-12-16T13:35:36.653Z,26.40
2022-12-16T13:38:23.430Z,22.93
2022-12-16T13:41:24.235Z,21.63
2022-12-16T13:44:11.173Z,21.37
2022-12-16T13:47:01.503Z,22.13
2022-12-16T13:50:02.023Z,21.63
2022-12-16T13:52:56.632Z,19.90
2022-12-16T13:55:45.303Z,20.80
2022-12-16T13:59:01.792Z,20.13
2022-12-16T14:01:52.225Z,19.17
2022-12-16T14:04:41.907Z,19.27
2022-12-16T14:07:27.221Z,18.27
2022-12-16T14:10:13.928Z,19.03
2022-12-16T14:13:13.935Z,19.97
2022-12-16T14:16:09.421Z,19.47
2022-12-16T14:19:01.639Z,19.40
2022-12-16T14:21:51.583Z,19.83
2022-12-16T14:24:41.867Z,19.00
2022-12-16T14:27:36.443Z,20.43
2022-12-16T14:30:23.226Z,18.70
2022-12-16T14:33:08.553Z,19.30
2022-12-16T14:35:53.786Z,18.93
2022-12-16T14:38:43.524Z,18.33
2022-12-16T14:41:32.869Z,19.23
2022-12-16T14:44:20.001Z,19.37
2022-12-16T14:47:08.216Z,18.53
2022-12-16T14:49:53.674Z,18.63
2022-12-16T14:52:40.079Z,18.73
2022-12-16T14:55:33.391Z,18.07
2022-12-16T14:58:23.868Z,17.73
2022-12-16T15:01:16.419Z,18.80
2022-12-16T15:04:03.909Z,17.87
2022-12-16T15:06:55.796Z,17.90
2022-12-16T15:09:45.571Z,16.80
2022-12-16T15:12:31.372Z,16.73
2022-12-16T15:15:16.707Z,15.83
2022-12-16T15:18:07.740Z,16.87
2022-12-16T15:20:56.065Z,15.07
2022-12-16T15:23:43.535Z,16.10
2022-12-16T15:26:36.007Z,17.63
2022-12-16T15:29:21.270Z,16.13
2022-12-16T15:32:06.585Z,16.37
2022-12-16T15:34:57.501Z,19.27
2022-12-16T15:37:43.974Z,20.20
2022-12-16T15:40:42.144Z,20.03
2022-12-16T15:43:40.231Z,21.30
2022-12-16T15:46:27.892Z,23.60
2022-12-16T15:49:13.323Z,23.07
2022-12-16T15:52:04.099Z,23.77
2022-12-16T15:54:49.865Z,23.27
2022-12-16T15:57:18.005Z,22.30
2022-12-16T16:00:15.215Z,30.67
2022-12-16T16:03:05.441Z,25.70
2022-12-16T16:05:51.320Z,24.17
2022-12-16T16:08:37.851Z,25.67
2022-12-16T16:11:23.136Z,28.10
2022-12-16T16:14:13.918Z,24.67
2022-12-16T16:16:59.388Z,23.63
2022-12-16T16:19:50.985Z,23.60
2022-12-16T16:22:36.901Z,22.33
2022-12-16T16:25:24.883Z,22.10
2022-12-16T16:28:09.380Z,20.90
2022-12-16T16:30:54.893Z,21.53
2022-12-16T16:33:40.339Z,22.40
2022-12-16T16:36:31.313Z,22.00
2022-12-16T16:39:12.917Z,22.20
2022-12-16T16:41:59.527Z,22.13
2022-12-16T16:44:44.899Z,23.97
2022-12-16T16:47:46.403Z,22.00
2022-12-16T16:50:32.612Z,22.37
2022-12-16T16:53:18.089Z,22.27
2022-12-16T16:56:03.213Z,21.97
2022-12-16T16:58:50.667Z,21.43
2022-12-16T17:01:36.862Z,21.97
2022-12-16T17:04:22.423Z,20.73
2022-12-16T17:07:04.154Z,21.17
2022-12-16T17:09:49.431Z,21.77
2022-12-16T17:12:37.773Z,21.47
2022-12-16T17:15:36.654Z,21.70
2022-12-16T17:18:23.270Z,22.30
2022-12-16T17:21:08.682Z,22.00
2022-12-16T17:23:53.931Z,23.10
2022-12-16T17:26:41.579Z,22.53
2022-12-16T17:29:34.029Z,23.43
2022-12-16T17:32:20.602Z,22.27
2022-12-16T17:35:05.903Z,21.63
2022-12-16T17:37:51.194Z,21.97
2022-12-16T17:40:36.520Z,22.40
2022-12-16T17:43:21.802Z,23.10
2022-12-16T17:46:15.060Z,23.57
2022-12-16T17:49:01.770Z,23.87
2022-12-16T17:51:47.042Z,23.30
2022-12-16T17:54:32.246Z,21.80
2022-12-16T18:00:20.083Z,21.50
2022-12-16T18:03:05.541Z,20.20
2022-12-16T18:05:52.831Z,20.47
2022-12-16T18:08:38.156Z,21.37
2022-12-16T18:11:20.109Z,21.87
2022-12-16T18:14:05.541Z,21.53
2022-12-16T18:16:50.889Z,22.63
2022-12-16T18:19:36.221Z,22.97
2022-12-16T18:22:23.290Z,25.87
2022-12-16T18:25:08.635Z,23.13
2022-12-16T18:27:54.500Z,24.67
2022-12-16T18:30:40.107Z,25.37
2022-12-16T18:33:25.355Z,24.87
2022-12-16T18:36:22.044Z,24.73
2022-12-16T18:39:08.677Z,25.23
2022-12-16T18:41:59.470Z,25.60
2022-12-16T18:44:44.887Z,22.70
2022-12-16T18:47:30.199Z,22.70
2022-12-16T18:50:15.613Z,22.23
2022-12-16T18:53:00.954Z,24.03
2022-12-16T18:55:47.487Z,23.90
2022-12-16T18:58:50.967Z,23.17
2022-12-16T19:01:36.625Z,24.20
2022-12-16T19:04:22.192Z,23.03
2022-12-16T19:07:07.206Z,23.93
2022-12-16T19:09:52.473Z,22.67
2022-12-16T19:12:39.042Z,26.10
2022-12-16T19:15:25.057Z,23.97
2022-12-16T19:18:10.417Z,23.90
2022-12-16T19:20:56.769Z,24.33
2022-12-16T19:23:41.944Z,24.07
2022-12-16T19:26:27.096Z,24.57
2022-12-16T19:29:13.890Z,23.90
2022-12-16T19:31:59.251Z,21.70
2022-12-16T19:34:44.447Z,22.10
2022-12-16T19:37:29.933Z,21.30
2022-12-16T19:40:15.081Z,21.50
2022-12-16T19:43:02.090Z,20.90
2022-12-16T19:45:48.788Z,20.53
2022-12-16T19:48:34.109Z,20.77
2022-12-16T19:51:20.499Z,21.23
2022-12-16T19:54:06.342Z,20.93
2022-12-16T19:56:52.342Z,20.17
2022-12-16T19:59:40.598Z,20.67
2022-12-16T20:02:29.871Z,19.23
2022-12-16T20:05:15.389Z,20.40
2022-12-16T20:08:00.626Z,21.00
2022-12-16T20:10:51.760Z,21.73
2022-12-16T20:13:37.201Z,20.47
2022-12-16T20:16:23.029Z,21.60
2022-12-16T20:19:11.904Z,21.90
2022-12-16T20:21:59.724Z,20.93
2022-12-16T20:24:48.689Z,21.63
2022-12-16T20:27:34.198Z,20.90
2022-12-16T20:30:19.579Z,20.37
2022-12-16T20:33:05.644Z,22.00
2022-12-16T20:35:52.419Z,20.30
2022-12-16T20:38:41.244Z,21.60
2022-12-16T20:41:26.483Z,22.83
2022-12-16T20:44:11.842Z,24.23
2022-12-16T20:46:57.129Z,23.33
2022-12-16T20:49:42.476Z,25.13
2022-12-16T20:52:28.994Z,23.23
2022-12-16T20:55:14.517Z,26.93
2022-12-16T21:00:41.061Z,25.20
2022-12-16T21:03:26.898Z,28.93
2022-12-16T21:06:12.333Z,26.33
2022-12-16T21:08:58.862Z,27.17
2022-12-16T21:11:44.006Z,27.33
2022-12-16T21:14:29.555Z,26.40
2022-12-16T21:17:14.879Z,26.87
2022-12-16T21:20:00.232Z,23.83
2022-12-16T21:22:45.800Z,25.27
2022-12-16T21:25:40.782Z,24.57
2022-12-16T21:28:26.132Z,21.80
2022-12-16T21:31:11.404Z,22.90
2022-12-16T21:33:56.711Z,22.07
2022-12-16T21:36:42.056Z,21.87
2022-12-16T21:39:27.523Z,21.73
2022-12-16T21:42:14.071Z,22.40
2022-12-16T21:44:59.473Z,22.67
2022-12-16T21:47:44.928Z,24.40
2022-12-16T21:50:30.214Z,23.83
2022-12-16T21:53:15.555Z,23.30
2022-12-16T21:56:00.929Z,24.23
2022-12-16T21:58:47.499Z,24.50
2022-12-16T22:01:32.778Z,23.63
2022-12-16T22:04:17.918Z,22.37
2022-12-16T22:07:03.183Z,21.87
2022-12-16T22:09:48.661Z,22.97
2022-12-16T22:12:34.022Z,21.17
2022-12-16T22:15:20.787Z,21.03
2022-12-16T22:18:06.088Z,21.67
2022-12-16T22:20:51.880Z,21.47
2022-12-16T22:23:36.894Z,20.77
2022-12-16T22:26:22.136Z,22.03
2022-12-16T22:29:10.470Z,21.67
2022-12-16T22:31:56.957Z,20.53
2022-12-16T22:34:42.435Z,22.47
2022-12-16T22:37:27.748Z,21.87
2022-12-16T22:40:13.016Z,21.03
2022-12-16T22:42:54.644Z,19.67
2022-12-16T22:45:41.623Z,20.27
2022-12-16T22:48:30.289Z,21.87
2022-12-16T22:51:15.561Z,22.57
2022-12-16T22:54:00.990Z,20.77
2022-12-16T22:56:46.168Z,19.23
2022-12-16T22:59:31.389Z,21.93
2022-12-16T23:02:16.743Z,21.50
2022-12-16T23:05:03.422Z,19.23
2022-12-16T23:07:48.526Z,20.83
2022-12-16T23:10:34.010Z,19.17
2022-12-16T23:13:30.590Z,19.67
2022-12-16T23:16:16.145Z,18.63
2022-12-16T23:19:01.536Z,19.57
2022-12-16T23:21:48.360Z,19.00
2022-12-16T23:24:33.663Z,19.37
2022-12-16T23:27:19.227Z,22.07
2022-12-16T23:30:04.561Z,20.67
2022-12-16T23:32:53.111Z,22.17
2022-12-16T23:35:38.939Z,22.03
2022-12-16T23:38:26.129Z,21.50
2022-12-16T23:41:14.426Z,21.37
2022-12-16T23:43:59.769Z,21.27
2022-12-16T23:46:45.160Z,21.97
2022-12-16T23:49:30.544Z,22.73
2022-12-16T23:52:15.938Z,21.40
2022-12-16T23:55:02.431Z,25.40
